Time;durP1;ratioP1;P1;durP2;ratioP2;P2;SDS_P1;SDS_P2;PMS_P1;PMS_P2;Temp;Humidity;BMP_temperature;BMP_pressure;BME280_temperature;BME280_humidity;BME280_pressure;Samples;Min_cycle;Max_cycle;Signal;HPM_P1;HPM_P2
2023/12/11 00:05:51;;;;;;;0.00;0.00;;;7.20;75.60;;;;;;20994463;28;20033;-48
2023/12/11 00:15:53;;;;;;;1.23;0.00;;;6.40;78.20;;;;;;20993137;28;20028;-61
2023/12/11 00:25:55;;;;;;;0.30;0.00;;;6.20;76.30;;;;;;20987477;28;20041;-50
2023/12/11 00:35:56;;;;;;;0.52;0.10;;;6.80;76.30;;;;;;20909916;28;20107;-62
2023/12/11 00:45:58;;;;;;;0.05;0.00;;;7.20;77.40;;;;;;20908128;28;20255;-59
2023/12/11 00:56:00;;;;;;;0.70;0.10;;;7.10;78.00;;;;;;20907605;28;20052;-58
2023/12/11 01:06:02;;;;;;;0.03;0.00;;;7.10;75.90;;;;;;20906869;28;20040;-62
2023/12/11 01:16:04;;;;;;;0.88;0.13;;;7.10;74.80;;;;;;20905745;28;20024;-61
2023/12/11 01:26:06;;;;;;;0.90;0.20;;;6.20;80.00;;;;;;20904884;28;20049;-55
2023/12/11 01:36:08;;;;;;;0.08;0.00;;;4.70;88.20;;;;;;20904971;28;20098;-60
2023/12/11 01:46:12;;;;;;;0.00;0.00;;;4.90;86.60;;;;;;20903413;28;20033;-61
2023/12/11 01:56:15;;;;;;;0.15;0.00;;;5.30;83.60;;;;;;20903660;28;20487;-62
2023/12/11 02:06:17;;;;;;;0.25;0.10;;;6.10;81.40;;;;;;20903594;28;20033;-52
2023/12/11 02:16:18;;;;;;;0.95;0.30;;;6.60;80.10;;;;;;20902726;28;20041;-61
2023/12/11 02:26:21;;;;;;;1.63;0.50;;;5.40;85.90;;;;;;20969463;28;20057;-56
2023/12/11 02:36:23;;;;;;;1.00;0.47;;;4.10;90.90;;;;;;20962924;28;20037;-52
2023/12/11 02:46:25;;;;;;;0.50;0.15;;;3.30;92.90;;;;;;20934114;28;20037;-53
2023/12/11 02:56:26;;;;;;;1.08;0.50;;;3.40;92.40;;;;;;20902448;28;20449;-52
2023/12/11 03:06:28;;;;;;;4.82;0.38;;;3.10;94.40;;;;;;20916142;28;20108;-50
2023/12/11 03:16:30;;;;;;;0.95;0.20;;;2.90;95.00;;;;;;20915116;28;20029;-61
2023/12/11 03:26:32;;;;;;;0.85;0.15;;;3.20;93.80;;;;;;20915659;28;20049;-61
2023/12/11 03:36:34;;;;;;;0.43;0.20;;;3.70;92.30;;;;;;20912614;28;20041;-51
2023/12/11 03:46:35;;;;;;;2.47;1.10;;;4.50;91.50;;;;;;20911561;28;20037;-51
2023/12/11 03:56:39;;;;;;;1.38;0.68;;;3.20;94.90;;;;;;20910304;28;20024;-51
2023/12/11 04:06:41;;;;;;;2.33;1.30;;;2.50;95.80;;;;;;20909535;28;20071;-50
2023/12/11 04:16:42;;;;;;;2.70;1.50;;;2.10;98.60;;;;;;20907529;28;20478;-59
2023/12/11 04:26:44;;;;;;;2.78;1.40;;;2.00;98.80;;;;;;20974408;28;20860;-51
2023/12/11 04:36:46;;;;;;;2.40;1.35;;;2.00;99.60;;;;;;20966381;28;20033;-48
2023/12/11 04:46:48;;;;;;;3.70;1.30;;;1.70;99.90;;;;;;20933651;28;20107;-52
2023/12/11 04:56:50;;;;;;;2.40;1.00;;;1.10;99.90;;;;;;20910085;28;20032;-49
2023/12/11 05:06:52;;;;;;;3.83;1.85;;;1.20;99.90;;;;;;20986642;28;20478;-52
2023/12/11 05:16:53;;;;;;;3.72;1.92;;;0.90;99.90;;;;;;20931664;28;20029;-62
2023/12/11 05:26:55;;;;;;;4.63;2.10;;;0.70;99.90;;;;;;20982492;28;20048;-61
2023/12/11 05:36:57;;;;;;;5.28;2.92;;;0.80;99.90;;;;;;20728627;28;20042;-61
2023/12/11 05:46:59;;;;;;;5.18;2.00;;;0.30;99.90;;;;;;20731050;28;20053;-61
2023/12/11 05:57:02;;;;;;;3.90;1.77;;;0.00;99.90;;;;;;20727049;28;20046;-60
2023/12/11 06:07:04;;;;;;;0.28;0.10;;;0.20;99.90;;;;;;20929979;28;20044;-61
2023/12/11 06:17:06;;;;;;;1.83;1.10;;;1.50;99.90;;;;;;20982471;28;20036;-61
2023/12/11 06:27:11;;;;;;;6.60;4.03;;;3.30;99.10;;;;;;20964663;28;20075;-62
2023/12/11 06:37:13;;;;;;;0.30;0.00;;;2.30;99.90;;;;;;20991619;28;20036;-62
2023/12/11 06:47:15;;;;;;;1.77;1.05;;;2.90;99.90;;;;;;20980106;28;20044;-63
2023/12/11 06:57:16;;;;;;;1.30;0.93;;;5.60;94.20;;;;;;20997255;28;20055;-55
2023/12/11 07:07:18;;;;;;;0.00;0.00;;;6.60;93.30;;;;;;20995078;28;20039;-58
2023/12/11 07:17:20;;;;;;;3.00;1.90;;;6.50;88.40;;;;;;20994833;28;20025;-62
2023/12/11 07:27:22;;;;;;;5.57;2.33;;;5.90;92.70;;;;;;20994688;28;20098;-62
2023/12/11 07:37:23;;;;;;;3.22;1.88;;;3.90;97.40;;;;;;20994442;28;20036;-60
2023/12/11 07:47:28;;;;;;;2.70;1.52;;;4.00;97.50;;;;;;20987119;28;20127;-63
2023/12/11 07:57:30;;;;;;;2.50;1.25;;;4.00;96.60;;;;;;20992287;28;20029;-54
2023/12/11 08:07:31;;;;;;;2.50;1.42;;;4.40;96.40;;;;;;20992549;28;20431;-51
2023/12/11 08:17:33;;;;;;;1.52;1.00;;;6.30;94.60;;;;;;20990537;28;20086;-58
2023/12/11 08:27:35;;;;;;;2.28;0.98;;;6.10;92.90;;;;;;20989233;28;20101;-49
2023/12/11 08:37:37;;;;;;;2.85;1.80;;;6.40;93.80;;;;;;20989566;28;20482;-52
2023/12/11 08:47:41;;;;;;;1.85;0.90;;;6.60;94.70;;;;;;20988358;28;20490;-59
2023/12/11 08:57:44;;;;;;;1.75;1.05;;;7.10;92.70;;;;;;20987228;28;20028;-56
2023/12/11 09:07:46;;;;;;;2.53;1.60;;;8.10;92.00;;;;;;20987553;28;20481;-56
2023/12/11 09:17:48;;;;;;;4.10;2.13;;;9.30;92.70;;;;;;20985552;28;20044;-52
2023/12/11 09:27:49;;;;;;;4.55;2.05;;;9.90;91.60;;;;;;20985072;28;20044;-62
2023/12/11 09:37:51;;;;;;;3.67;2.63;;;9.70;91.00;;;;;;20983328;28;20044;-53
2023/12/11 09:47:53;;;;;;;3.47;1.42;;;9.60;93.30;;;;;;20984641;28;20114;-52
2023/12/11 09:57:56;;;;;;;3.22;1.73;;;9.20;91.00;;;;;;20983364;28;20048;-63
2023/12/11 10:07:58;;;;;;;3.03;2.10;;;8.90;91.90;;;;;;20986332;28;20037;-53
2023/12/11 10:18:08;;;;;;;3.88;2.20;;;8.50;93.30;;;;;;20996977;28;20040;-53
2023/12/11 10:28:15;;;;;;;5.00;3.47;;;8.20;93.30;;;;;;20995279;28;20037;-62
2023/12/11 10:38:24;;;;;;;5.93;4.05;;;7.70;95.90;;;;;;20998899;28;20029;-57
2023/12/11 10:48:27;;;;;;;6.33;4.50;;;7.40;97.10;;;;;;20992680;28;20032;-60
2023/12/11 10:58:29;;;;;;;6.55;5.07;;;7.30;96.60;;;;;;20993500;28;20036;-51
2023/12/11 11:09:07;;;;;;;5.80;3.72;;;7.40;97.70;;;;;;20993075;28;20032;-61
2023/12/11 11:19:09;;;;;;;1.75;0.30;;;7.40;98.00;;;;;;20958488;28;20444;-61
2023/12/11 11:29:40;;;;;;;1.35;0.40;;;9.30;96.20;;;;;;20993086;28;20032;-61
2023/12/11 11:40:03;;;;;;;3.88;1.17;;;10.10;95.10;;;;;;20994346;28;20086;-61
2023/12/11 11:50:13;;;;;;;2.50;0.68;;;10.50;93.80;;;;;;20993425;28;20058;-52
2023/12/11 12:00:24;;;;;;;1.65;0.22;;;10.60;92.80;;;;;;20991256;28;20043;-60
2023/12/11 12:10:25;;;;;;;0.47;0.10;;;10.70;93.80;;;;;;20972795;28;20041;-52
2023/12/11 12:20:27;;;;;;;2.00;0.30;;;10.90;92.60;;;;;;20990312;28;20071;-49
2023/12/11 12:30:33;;;;;;;4.13;0.40;;;10.70;92.70;;;;;;20989215;28;20192;-58
2023/12/11 12:40:35;;;;;;;2.63;0.28;;;10.10;95.00;;;;;;20814164;28;20204;-61
2023/12/11 12:50:37;;;;;;;1.23;0.20;;;10.10;93.90;;;;;;20814197;28;20046;-55
2023/12/11 13:00:40;;;;;;;0.75;0.20;;;10.00;93.20;;;;;;20812696;28;20483;-52
2023/12/11 13:10:55;;;;;;;2.35;0.30;;;10.10;92.60;;;;;;20949862;28;20502;-60
2023/12/11 13:20:57;;;;;;;1.13;0.20;;;9.80;93.90;;;;;;20986223;28;20043;-52
2023/12/11 13:30:59;;;;;;;1.45;0.40;;;9.70;94.60;;;;;;20967633;28;20082;-62
2023/12/11 13:41:01;;;;;;;1.67;0.30;;;9.50;94.60;;;;;;20984762;28;20090;-56
2023/12/11 13:51:05;;;;;;;4.53;1.50;;;9.10;94.10;;;;;;20986210;28;20082;-61
2023/12/11 14:01:08;;;;;;;3.10;1.63;;;8.40;95.50;;;;;;20984219;28;20044;-53
2023/12/11 14:11:09;;;;;;;3.05;0.85;;;8.00;96.50;;;;;;20983427;28;20386;-50
2023/12/11 14:21:14;;;;;;;1.88;0.40;;;7.60;97.30;;;;;;20965486;28;20028;-50
2023/12/11 14:31:16;;;;;;;3.42;0.52;;;8.00;96.60;;;;;;20982791;28;20037;-52
2023/12/11 14:41:21;;;;;;;2.63;0.65;;;8.00;96.60;;;;;;20965014;28;20037;-53
2023/12/11 14:51:23;;;;;;;2.22;0.50;;;7.70;96.90;;;;;;20982820;28;20033;-52
2023/12/11 15:01:24;;;;;;;3.33;0.32;;;7.40;98.10;;;;;;20994657;28;20102;-56
2023/12/11 15:11:27;;;;;;;1.83;0.30;;;7.20;99.90;;;;;;20994968;28;20516;-62
2023/12/11 15:21:29;;;;;;;1.42;0.25;;;6.80;99.90;;;;;;20995139;28;20040;-61
2023/12/11 15:31:31;;;;;;;0.85;0.10;;;7.10;99.90;;;;;;20977028;28;20037;-61
2023/12/11 15:41:34;;;;;;;0.68;0.10;;;7.60;99.90;;;;;;20993568;28;20033;-57
2023/12/11 15:51:36;;;;;;;0.28;0.10;;;7.40;99.90;;;;;;20993889;28;20029;-61
2023/12/11 16:01:38;;;;;;;0.10;0.00;;;7.70;99.90;;;;;;20992645;28;20036;-50
2023/12/11 16:11:40;;;;;;;0.30;0.00;;;7.70;99.90;;;;;;20992209;28;20043;-51
2023/12/11 16:21:41;;;;;;;2.45;1.20;;;7.80;99.90;;;;;;20993453;28;20391;-59
2023/12/11 16:31:43;;;;;;;0.25;0.10;;;7.60;99.60;;;;;;20939491;28;20028;-51
2023/12/11 16:41:47;;;;;;;0.05;0.00;;;7.60;99.20;;;;;;20890986;28;20151;-61
2023/12/11 16:51:49;;;;;;;6.32;1.50;;;7.60;99.90;;;;;;20908964;28;20434;-52
2023/12/11 17:01:51;;;;;;;3.85;1.33;;;7.00;97.90;;;;;;20907615;28;20474;-52
2023/12/11 17:11:52;;;;;;;2.20;1.13;;;4.70;99.90;;;;;;20906405;28;20029;-51
2023/12/11 17:21:54;;;;;;;1.83;0.65;;;3.80;99.90;;;;;;20905639;28;20033;-61
2023/12/11 17:31:58;;;;;;;3.60;0.82;;;3.30;99.90;;;;;;20887097;28;20045;-62
2023/12/11 17:41:59;;;;;;;2.90;1.08;;;4.00;99.90;;;;;;20904552;28;20040;-62
2023/12/11 17:52:01;;;;;;;3.25;0.60;;;3.40;99.90;;;;;;20906072;28;20025;-51
2023/12/11 18:02:04;;;;;;;1.45;0.60;;;2.70;99.90;;;;;;20885496;28;20045;-52
2023/12/11 18:12:08;;;;;;;3.20;0.68;;;2.60;99.90;;;;;;20903188;28;20075;-50
2023/12/11 18:22:11;;;;;;;1.67;0.50;;;2.30;99.90;;;;;;20943594;28;20049;-60
2023/12/11 18:32:14;;;;;;;3.30;0.60;;;2.20;99.90;;;;;;20989439;28;20040;-61
2023/12/11 18:42:16;;;;;;;3.30;0.65;;;2.10;99.90;;;;;;21000550;28;20040;-49
2023/12/11 18:52:18;;;;;;;2.20;0.80;;;2.40;99.90;;;;;;21001035;28;20028;-54
2023/12/11 19:02:19;;;;;;;1.30;0.40;;;2.90;99.90;;;;;;20999646;28;20028;-62
2023/12/11 19:12:21;;;;;;;3.13;0.70;;;2.70;99.90;;;;;;20998809;28;20474;-62
2023/12/11 19:22:23;;;;;;;1.00;0.40;;;2.40;99.90;;;;;;20997462;28;20037;-55
2023/12/11 19:32:26;;;;;;;2.22;0.40;;;2.00;99.90;;;;;;20993960;28;20531;-54
2023/12/11 19:42:28;;;;;;;1.40;0.40;;;1.90;99.90;;;;;;20996198;28;20042;-51
2023/12/11 19:52:29;;;;;;;1.55;0.57;;;2.00;99.90;;;;;;20993962;28;20044;-51
2023/12/11 20:02:31;;;;;;;3.28;0.52;;;1.70;99.90;;;;;;20994667;28;20028;-61
2023/12/11 20:12:36;;;;;;;2.35;0.70;;;1.40;99.90;;;;;;20992966;28;20036;-49
2023/12/11 20:22:38;;;;;;;1.20;0.50;;;1.10;99.90;;;;;;20955371;28;20056;-49
2023/12/11 20:32:39;;;;;;;1.80;0.80;;;0.80;99.90;;;;;;20888237;28;20033;-49
2023/12/11 20:42:41;;;;;;;2.05;0.65;;;0.70;99.90;;;;;;20909091;28;20063;-51
2023/12/11 20:52:43;;;;;;;2.25;0.32;;;0.90;99.90;;;;;;20908395;28;20055;-60
2023/12/11 21:02:45;;;;;;;1.77;0.50;;;1.30;99.90;;;;;;20881856;28;20076;-57
2023/12/11 21:12:47;;;;;;;1.35;0.57;;;1.20;99.90;;;;;;20844615;28;20033;-61
2023/12/11 21:22:49;;;;;;;2.60;0.60;;;1.10;99.90;;;;;;20951350;28;20048;-61
2023/12/11 21:32:51;;;;;;;1.90;0.57;;;1.00;99.90;;;;;;20925294;28;20095;-61
2023/12/11 21:42:54;;;;;;;1.02;0.38;;;0.90;99.90;;;;;;20966053;28;20051;-61
2023/12/11 21:52:55;;;;;;;1.33;0.30;;;1.00;99.90;;;;;;20904620;28;20032;-61
2023/12/11 22:02:57;;;;;;;0.60;0.30;;;1.10;99.90;;;;;;20902834;28;20086;-62
2023/12/11 22:12:59;;;;;;;0.85;0.30;;;1.00;99.90;;;;;;20949628;28;20037;-61
2023/12/11 22:23:01;;;;;;;0.60;0.30;;;1.00;99.90;;;;;;20986198;28;20043;-62
2023/12/11 22:33:03;;;;;;;1.02;0.40;;;1.20;99.90;;;;;;20921636;28;20305;-62
2023/12/11 22:43:04;;;;;;;0.98;0.30;;;1.20;99.90;;;;;;20902316;28;20390;-59
2023/12/11 22:53:06;;;;;;;0.57;0.20;;;1.20;99.90;;;;;;20902207;28;20025;-52
2023/12/11 23:03:08;;;;;;;0.55;0.20;;;1.20;99.90;;;;;;20901432;28;20033;-61
2023/12/11 23:13:10;;;;;;;2.78;0.22;;;1.30;99.90;;;;;;20900419;28;20107;-61
2023/12/11 23:23:12;;;;;;;0.57;0.20;;;1.40;99.90;;;;;;20910194;28;20037;-62
2023/12/11 23:33:14;;;;;;;0.43;0.10;;;1.80;99.90;;;;;;20914877;28;20059;-61
2023/12/11 23:43:15;;;;;;;0.28;0.10;;;1.80;99.90;;;;;;20914081;28;20037;-61
2023/12/11 23:53:17;;;;;;;1.00;0.28;;;1.70;99.90;;;;;;20913666;28;20137;-49
